Terminal Aerodrome Forecast
Issued by NWS

Home | Current Version | Previous Version | Text Only | Print | Product List | Glossary Off
Versions: 1 2 3 4 5 6 7 8 9 10 11 12 13 14 15 16 17

000
FTUS43 KICT 291727
TAFRSL
TAF
KRSL 291727Z 2918/3018 VRB06KT P6SM VCTS SCT050 BKN070CB
     FM300100 03007KT P6SM SCT050 BKN100
     FM300500 04007KT P6SM VCSH SCT015 BKN050=

USA.gov is the U.S. government's official web portal to all federal, state and local government web resources and services.